Time;durP1;ratioP1;P1;durP2;ratioP2;P2;SDS_P1;SDS_P2;PMS_P1;PMS_P2;Temp;Humidity;BMP_temperature;BMP_pressure;BME280_temperature;BME280_humidity;BME280_pressure;Samples;Min_cycle;Max_cycle;Signal;HPM_P1;HPM_P2
2022/07/26 00:02:18;;;;;;;0.93;0.93;;;;;;;31.64;30.88;99131.62;1877154;74;28187;-55
2022/07/26 00:05:08;;;;;;;0.90;0.90;;;;;;;31.62;30.82;99115.83;1880194;75;28075;-56
2022/07/26 00:08:09;;;;;;;1.02;0.78;;;;;;;31.60;30.78;99116.11;1861640;76;28139;-55
2022/07/26 00:10:49;;;;;;;0.90;0.90;;;;;;;31.59;30.79;99121.98;1873548;76;28127;-54
2022/07/26 00:13:37;;;;;;;0.70;0.70;;;;;;;31.56;30.79;99109.52;1885448;74;28072;-54
2022/07/26 00:16:26;;;;;;;0.70;0.70;;;;;;;31.55;30.84;99110.67;1884423;75;28064;-55
2022/07/26 00:19:14;;;;;;;1.90;0.80;;;;;;;31.52;30.94;99127.92;1875783;76;28149;-57
2022/07/26 00:25:10;;;;;;;3.25;0.90;;;;;;;31.49;31.00;99119.36;1875701;75;28094;-54
2022/07/26 00:27:59;;;;;;;3.37;0.72;;;;;;;31.43;31.06;99112.25;1878140;76;28250;-55
2022/07/26 00:30:50;;;;;;;0.70;0.70;;;;;;;31.46;31.03;99115.82;1868355;75;28226;-51
2022/07/26 00:33:39;;;;;;;0.88;0.88;;;;;;;31.43;31.06;99118.63;1870439;75;28185;-54
2022/07/26 00:36:28;;;;;;;1.30;0.62;;;;;;;31.38;31.24;99121.45;1865523;75;28024;-56
2022/07/26 00:39:16;;;;;;;0.60;0.60;;;;;;;31.38;31.38;99120.90;1868289;76;28090;-53
2022/07/26 00:42:05;;;;;;;0.88;0.60;;;;;;;31.37;31.50;99123.40;1854463;76;28051;-55
2022/07/26 00:44:53;;;;;;;0.60;0.60;;;;;;;31.33;31.56;99134.02;1866225;76;28084;-57
2022/07/26 00:47:42;;;;;;;1.30;0.68;;;;;;;31.32;31.59;99130.41;1856852;76;28149;-58
2022/07/26 00:50:30;;;;;;;0.62;0.62;;;;;;;31.31;31.64;99126.01;1866701;76;28260;-56
2022/07/26 00:53:21;;;;;;;0.80;0.80;;;;;;;31.31;31.66;99121.84;1850757;76;28092;-57
2022/07/26 00:56:10;;;;;;;0.80;0.80;;;;;;;31.31;31.68;99131.56;1870516;76;28050;-56
2022/07/26 00:58:58;;;;;;;0.60;0.60;;;;;;;31.28;31.82;99146.03;1858141;76;28139;-57
2022/07/26 01:01:46;;;;;;;0.65;0.65;;;;;;;31.21;31.96;99131.70;1861185;76;28185;-54
2022/07/26 01:04:35;;;;;;;0.70;0.70;;;;;;;31.18;32.10;99118.42;1843183;76;28130;-54
2022/07/26 01:07:24;;;;;;;0.60;0.60;;;;;;;31.18;32.14;99143.98;1859365;76;28127;-53
2022/07/26 01:10:13;;;;;;;0.95;0.65;;;;;;;31.16;32.22;99134.55;1890890;74;28060;-57
2022/07/26 01:13:01;;;;;;;0.70;0.70;;;;;;;31.17;32.24;99145.09;1865847;76;28166;-54
2022/07/26 01:15:50;;;;;;;0.93;0.57;;;;;;;31.15;32.31;99112.10;1879261;75;28051;-53
2022/07/26 01:18:38;;;;;;;0.72;0.72;;;;;;;31.14;32.33;99124.31;1870400;75;28203;-54
2022/07/26 01:21:31;;;;;;;0.70;0.70;;;;;;;31.13;32.33;99118.52;1839780;77;28169;-54
2022/07/26 01:24:20;;;;;;;0.73;0.73;;;;;;;31.10;32.41;99136.31;1877051;75;28128;-56
2022/07/26 01:27:09;;;;;;;0.57;0.57;;;;;;;31.11;32.49;99135.20;1867642;76;28044;-55
2022/07/26 01:29:57;;;;;;;0.57;0.57;;;;;;;31.09;32.58;99149.36;1871782;75;28172;-55
2022/07/26 01:32:45;;;;;;;0.70;0.70;;;;;;;31.10;32.61;99130.20;1876896;75;28227;-55
2022/07/26 01:35:33;;;;;;;1.50;0.60;;;;;;;31.06;32.68;99124.17;1876798;76;28721;-55
2022/07/26 01:38:22;;;;;;;0.60;0.60;;;;;;;31.06;32.76;99132.50;1877936;76;28208;-53
2022/07/26 01:41:10;;;;;;;1.27;0.70;;;;;;;31.01;32.82;99142.27;1875830;75;28518;-56
2022/07/26 01:43:59;;;;;;;0.60;0.60;;;;;;;31.02;32.89;99150.29;1877968;76;28058;-56
2022/07/26 01:46:48;;;;;;;0.63;0.63;;;;;;;30.98;33.00;99146.47;1858169;76;28056;-54
2022/07/26 01:49:36;;;;;;;0.50;0.50;;;;;;;30.91;33.20;99155.72;1866200;76;28201;-56
2022/07/26 01:52:26;;;;;;;0.80;0.50;;;;;;;30.92;33.33;99140.73;1874082;75;27991;-56
2022/07/26 01:55:14;;;;;;;0.60;0.50;;;;;;;30.91;33.41;99129.92;1880230;74;28183;-55
2022/07/26 01:58:05;;;;;;;0.80;0.70;;;;;;;30.91;33.47;99147.95;1877974;75;28216;-55
2022/07/26 02:00:53;;;;;;;0.60;0.60;;;;;;;30.89;33.63;99151.59;1872263;76;28172;-54
2022/07/26 02:03:42;;;;;;;1.80;0.60;;;;;;;30.86;33.73;99155.75;1880228;75;28279;-56
2022/07/26 02:06:30;;;;;;;0.90;0.67;;;;;;;30.81;33.95;99151.66;1865316;76;28201;-53
2022/07/26 02:09:19;;;;;;;0.60;0.60;;;;;;;30.78;34.17;99154.20;1866995;76;28250;-56
2022/07/26 02:12:09;;;;;;;0.55;0.50;;;;;;;30.75;34.28;99143.98;1872899;75;28185;-56
2022/07/26 02:14:58;;;;;;;0.60;0.60;;;;;;;30.75;34.43;99155.63;1877851;75;28071;-55
2022/07/26 02:17:47;;;;;;;0.50;0.50;;;;;;;30.73;34.58;99142.63;1866419;76;28200;-54
2022/07/26 02:20:35;;;;;;;1.10;0.47;;;;;;;30.75;34.67;99145.92;1867085;76;28141;-56
2022/07/26 02:23:25;;;;;;;0.40;0.40;;;;;;;30.70;34.84;99141.27;1863912;76;28228;-57
2022/07/26 02:26:13;;;;;;;0.60;0.60;;;;;;;30.71;34.95;99163.70;1864477;76;28145;-55
2022/07/26 02:29:01;;;;;;;0.50;0.50;;;;;;;30.63;35.16;99143.58;1869990;76;28084;-54
2022/07/26 02:31:49;;;;;;;0.68;0.68;;;;;;;30.59;35.33;99137.53;1882852;75;28190;-55
2022/07/26 02:34:38;;;;;;;0.65;0.55;;;;;;;30.56;35.44;99138.95;1887262;75;28023;-55
2022/07/26 02:37:27;;;;;;;0.53;0.53;;;;;;;30.54;35.54;99141.19;1877772;76;28098;-56
2022/07/26 02:40:15;;;;;;;0.98;0.60;;;;;;;30.57;35.61;99135.62;1875562;75;28051;-55
2022/07/26 02:43:05;;;;;;;0.60;0.60;;;;;;;30.56;35.65;99138.11;1884852;75;28067;-55
2022/07/26 02:45:53;;;;;;;0.80;0.47;;;;;;;30.54;35.75;99139.81;1874214;75;28053;-55
2022/07/26 02:48:42;;;;;;;0.67;0.57;;;;;;;30.56;35.77;99144.49;1879349;75;28209;-52
2022/07/26 02:51:30;;;;;;;0.57;0.57;;;;;;;30.57;35.81;99139.78;1870705;75;28127;-54
2022/07/26 02:54:18;;;;;;;0.40;0.40;;;;;;;30.56;35.86;99135.34;1875452;75;28157;-55
2022/07/26 02:57:07;;;;;;;0.90;0.57;;;;;;;30.56;35.85;99132.56;1869404;76;28119;-55
2022/07/26 02:59:55;;;;;;;0.50;0.40;;;;;;;30.55;35.86;99138.67;1864476;76;29107;-54
2022/07/26 03:02:44;;;;;;;0.65;0.60;;;;;;;30.50;35.97;99135.16;1877771;75;28129;-55
2022/07/26 03:05:33;;;;;;;0.40;0.40;;;;;;;30.48;36.02;99127.70;1879155;75;28131;-54
2022/07/26 03:08:21;;;;;;;0.42;0.42;;;;;;;30.49;36.01;99136.26;1883763;75;28106;-54
2022/07/26 03:11:10;;;;;;;0.70;0.50;;;;;;;30.49;36.01;99133.48;1899294;74;28166;-53
2022/07/26 03:13:58;;;;;;;0.40;0.40;;;;;;;30.45;36.04;99124.12;1887014;75;28158;-54
2022/07/26 03:16:46;;;;;;;0.30;0.30;;;;;;;30.47;36.04;99137.12;1884793;75;28046;-53
2022/07/26 03:19:34;;;;;;;0.65;0.40;;;;;;;30.40;36.12;99120.84;1877882;76;28059;-56
2022/07/26 03:22:23;;;;;;;0.33;0.33;;;;;;;30.39;36.16;99114.20;1869582;75;28442;-55
2022/07/26 03:25:11;;;;;;;0.40;0.40;;;;;;;30.40;36.16;99135.27;1874389;75;28180;-55
2022/07/26 03:27:59;;;;;;;0.30;0.30;;;;;;;30.40;36.14;99115.30;1891733;75;28031;-55
2022/07/26 03:30:48;;;;;;;0.42;0.42;;;;;;;30.40;36.08;99125.56;1868093;76;28272;-55
2022/07/26 03:33:36;;;;;;;1.00;0.40;;;;;;;30.40;36.16;99121.41;1882160;74;28203;-54
2022/07/26 03:36:24;;;;;;;0.30;0.30;;;;;;;30.33;36.19;99136.17;1835825;75;28214;-54
2022/07/26 03:39:13;;;;;;;0.35;0.35;;;;;;;30.31;36.26;99113.44;1868239;76;28087;-53
2022/07/26 03:42:01;;;;;;;0.42;0.37;;;;;;;30.28;36.32;99107.09;1856886;75;27991;-55
2022/07/26 03:44:49;;;;;;;0.20;0.20;;;;;;;30.25;36.37;99111.83;1882361;74;28221;-54
2022/07/26 03:47:38;;;;;;;0.30;0.30;;;;;;;30.21;36.49;99118.54;1878844;75;28128;-54
2022/07/26 03:50:26;;;;;;;0.30;0.20;;;;;;;30.22;36.56;99123.52;1865080;76;28083;-54
2022/07/26 03:53:15;;;;;;;0.33;0.33;;;;;;;30.22;36.58;99120.75;1860174;75;28204;-55
2022/07/26 03:59:11;;;;;;;0.40;0.40;;;;;;;30.18;36.69;99118.31;1853100;74;28189;-55
2022/07/26 04:01:59;;;;;;;0.30;0.30;;;;;;;30.11;36.85;99118.64;1858525;76;28199;-55
2022/07/26 04:04:48;;;;;;;1.30;0.40;;;;;;;30.12;36.85;99127.23;1856295;75;28199;-53
2022/07/26 04:07:42;;;;;;;0.20;0.20;;;;;;;30.13;36.90;99115.01;1865502;76;28098;-51
2022/07/26 04:10:32;;;;;;;0.30;0.30;;;;;;;30.14;36.90;99118.61;1858503;76;28107;-56
2022/07/26 04:13:22;;;;;;;0.40;0.40;;;;;;;30.12;37.01;99111.16;1857293;76;28107;-54
2022/07/26 04:16:11;;;;;;;0.90;0.30;;;;;;;30.12;37.06;99112.55;1861482;76;28096;-55
2022/07/26 04:18:59;;;;;;;0.20;0.20;;;;;;;30.11;37.09;99130.30;1864591;76;28546;-56
2022/07/26 04:21:47;;;;;;;0.37;0.37;;;;;;;30.07;37.10;99118.41;1859677;76;28044;-54
2022/07/26 04:24:36;;;;;;;0.60;0.50;;;;;;;30.10;37.11;99119.77;1842612;77;28130;-53
2022/07/26 04:27:24;;;;;;;0.50;0.50;;;;;;;30.07;37.18;99131.43;1863649;76;28757;-55
2022/07/26 04:30:13;;;;;;;0.23;0.23;;;;;;;29.99;37.33;99109.92;1868277;76;28052;-54
2022/07/26 04:33:01;;;;;;;0.40;0.40;;;;;;;30.01;37.35;99104.33;1866693;75;28058;-54
2022/07/26 04:35:51;;;;;;;0.30;0.30;;;;;;;29.93;37.48;99102.77;1873500;74;28104;-54
2022/07/26 04:38:40;;;;;;;0.33;0.33;;;;;;;29.90;37.58;99105.56;1867708;74;28180;-54
2022/07/26 04:41:28;;;;;;;0.40;0.40;;;;;;;29.90;37.60;99108.88;1880087;75;28133;-53
2022/07/26 04:44:16;;;;;;;1.20;0.30;;;;;;;29.89;37.64;99112.23;1882401;75;28843;-58
2022/07/26 04:47:05;;;;;;;0.35;0.35;;;;;;;29.84;37.66;99110.90;1861786;76;38462;-59
2022/07/26 04:49:54;;;;;;;0.50;0.40;;;;;;;29.48;38.25;99136.39;1887341;75;28107;-59
2022/07/26 04:52:42;;;;;;;0.40;0.40;;;;;;;29.34;38.63;99123.19;1866585;76;28263;-59
2022/07/26 04:55:31;;;;;;;0.43;0.43;;;;;;;29.07;39.18;99115.89;1880614;75;28015;-60
2022/07/26 04:58:20;;;;;;;0.35;0.30;;;;;;;28.93;39.64;99115.42;1862493;76;28113;-59
2022/07/26 05:01:08;;;;;;;0.20;0.20;;;;;;;28.82;39.84;99101.39;1877205;76;28148;-59
2022/07/26 05:03:57;;;;;;;0.30;0.30;;;;;;;28.73;40.05;99103.90;1874612;76;28205;-59
2022/07/26 05:06:45;;;;;;;0.80;0.50;;;;;;;28.71;40.19;99108.89;1861727;76;28138;-60
2022/07/26 05:09:33;;;;;;;0.50;0.50;;;;;;;28.62;40.42;99138.23;1870610;76;28114;-61
2022/07/26 05:12:22;;;;;;;0.40;0.40;;;;;;;28.57;40.55;99143.20;1878399;76;28023;-59
2022/07/26 05:15:11;;;;;;;0.50;0.37;;;;;;;28.54;40.74;99138.81;1876557;74;28091;-59
2022/07/26 05:18:08;;;;;;;0.55;0.55;;;;;;;28.78;40.36;99112.75;1877782;74;28076;-59
2022/07/26 05:20:57;;;;;;;0.45;0.45;;;;;;;28.98;40.00;99106.55;1900502;74;28049;-59
2022/07/26 05:23:45;;;;;;;0.55;0.40;;;;;;;29.17;39.63;99106.12;1876307;76;28052;-59
2022/07/26 05:26:33;;;;;;;0.43;0.43;;;;;;;29.33;39.27;99104.12;1881892;75;28193;-62
2022/07/26 05:29:22;;;;;;;0.70;0.70;;;;;;;29.46;39.02;99120.05;1853231;74;28253;-59
2022/07/26 05:32:10;;;;;;;0.60;0.60;;;;;;;29.56;38.86;99100.60;1862130;76;28134;-60
2022/07/26 05:34:58;;;;;;;0.50;0.50;;;;;;;29.64;38.64;99097.19;1852734;74;28042;-60
2022/07/26 05:37:46;;;;;;;0.40;0.40;;;;;;;29.73;38.45;99112.64;1855664;74;28599;-60
2022/07/26 05:40:35;;;;;;;0.65;0.65;;;;;;;29.80;38.23;99102.88;1849767;77;28138;-60
2022/07/26 05:43:24;;;;;;;2.00;0.70;;;;;;;29.85;38.08;99154.66;1876751;75;28184;-59
2022/07/26 05:46:19;;;;;;;0.78;0.72;;;;;;;29.91;37.85;99091.99;1862150;76;28188;-59
2022/07/26 05:49:07;;;;;;;0.60;0.60;;;;;;;29.95;37.77;99100.53;1862367;75;28084;-59
2022/07/26 05:51:55;;;;;;;0.62;0.62;;;;;;;30.00;37.66;99102.70;1869959;75;28143;-60
2022/07/26 05:54:44;;;;;;;0.70;0.70;;;;;;;30.05;37.59;99101.81;1855759;76;28169;-59
2022/07/26 05:57:32;;;;;;;1.22;0.60;;;;;;;30.08;37.51;99108.97;1835503;77;28064;-59
2022/07/26 06:00:21;;;;;;;1.17;0.70;;;;;;;30.14;37.41;99108.91;1869666;75;28096;-56
2022/07/26 06:03:21;;;;;;;1.65;0.70;;;;;;;30.15;37.38;99105.88;1866166;76;28047;-59
2022/07/26 06:06:10;;;;;;;1.00;0.70;;;;;;;30.23;37.26;99089.14;1837422;77;28130;-59
2022/07/26 06:08:59;;;;;;;0.90;0.80;;;;;;;30.27;37.22;99089.64;1856043;76;28161;-59
2022/07/26 06:11:47;;;;;;;1.45;0.80;;;;;;;30.30;37.17;99094.59;1866841;76;28074;-59
2022/07/26 06:14:36;;;;;;;1.27;0.80;;;;;;;30.38;37.38;99098.15;1826932;77;28215;-59
2022/07/26 06:17:28;;;;;;;0.70;0.70;;;;;;;30.45;37.45;99101.94;1869137;76;28013;-58
2022/07/26 06:20:14;;;;;;;1.27;0.68;;;;;;;30.54;37.49;99082.14;1872088;75;28044;-57
2022/07/26 06:23:03;;;;;;;1.22;0.70;;;;;;;30.57;37.47;99094.03;1861520;75;28088;-59
2022/07/26 06:25:53;;;;;;;0.70;0.70;;;;;;;30.64;37.43;99088.95;1863882;75;28149;-59
2022/07/26 06:28:42;;;;;;;1.00;0.88;;;;;;;30.71;37.39;99089.41;1853829;76;28276;-59
2022/07/26 06:31:31;;;;;;;0.40;0.40;;;;;;;30.75;37.21;99091.84;1853352;76;28080;-59
2022/07/26 06:34:19;;;;;;;0.78;0.60;;;;;;;30.78;37.23;99094.83;1849153;77;28164;-59
2022/07/26 06:37:08;;;;;;;0.53;0.53;;;;;;;30.83;37.10;99107.80;1857704;74;28195;-60
2022/07/26 06:39:56;;;;;;;0.70;0.70;;;;;;;30.86;37.01;99116.92;1873120;75;28154;-59
2022/07/26 06:42:44;;;;;;;0.73;0.70;;;;;;;30.88;36.88;99111.92;1874208;76;28129;-59
2022/07/26 06:45:33;;;;;;;1.70;0.50;;;;;;;30.91;36.80;99114.11;1869299;76;28220;-59
2022/07/26 06:48:22;;;;;;;1.10;0.80;;;;;;;30.92;36.70;99112.17;1859420;75;28160;-60
2022/07/26 06:51:10;;;;;;;0.97;0.60;;;;;;;30.97;36.58;99103.78;1883618;75;28270;-59
2022/07/26 06:53:59;;;;;;;1.87;0.70;;;;;;;31.00;36.49;99101.22;1862340;76;28136;-59
2022/07/26 06:56:47;;;;;;;0.70;0.70;;;;;;;31.04;36.39;99109.78;1873546;76;28187;-59
2022/07/26 06:59:37;;;;;;;0.78;0.70;;;;;;;31.03;36.33;99108.95;1871101;76;28126;-58
2022/07/26 07:02:25;;;;;;;1.37;0.60;;;;;;;31.05;36.28;99105.86;1877819;76;28163;-59
2022/07/26 07:05:14;;;;;;;0.60;0.60;;;;;;;31.07;36.24;99107.77;1870962;76;28092;-59
2022/07/26 07:08:02;;;;;;;0.60;0.60;;;;;;;31.08;36.16;99096.39;1869288;76;28134;-59
2022/07/26 07:10:52;;;;;;;0.50;0.50;;;;;;;31.09;36.13;99093.86;1861690;76;28285;-59
2022/07/26 07:13:40;;;;;;;0.70;0.60;;;;;;;31.13;36.03;99096.88;1880631;75;28188;-59
2022/07/26 07:16:29;;;;;;;0.50;0.50;;;;;;;31.15;35.92;99106.55;1880652;75;28194;-59
2022/07/26 07:19:17;;;;;;;0.60;0.60;;;;;;;31.14;35.92;99117.94;1861774;76;28067;-59
2022/07/26 07:22:10;;;;;;;1.50;0.60;;;;;;;31.14;35.84;99099.34;1879206;75;28078;-59
2022/07/26 07:24:56;;;;;;;0.68;0.68;;;;;;;31.14;35.80;99093.80;1857393;76;28201;-59
2022/07/26 07:27:44;;;;;;;0.60;0.60;;;;;;;31.13;35.78;99094.94;1884993;75;28015;-59
2022/07/26 07:30:33;;;;;;;1.20;0.65;;;;;;;31.17;35.72;99103.47;1887479;75;28120;-59
2022/07/26 07:33:21;;;;;;;0.70;0.65;;;;;;;31.17;35.65;99095.97;1885234;75;28186;-59
2022/07/26 07:36:10;;;;;;;0.70;0.70;;;;;;;31.19;35.61;99100.66;1869470;76;28118;-59
2022/07/26 07:38:58;;;;;;;0.80;0.80;;;;;;;31.22;35.54;99095.90;1875290;75;28054;-59
2022/07/26 07:41:48;;;;;;;0.60;0.60;;;;;;;31.17;35.51;99090.42;1857515;76;28175;-59
2022/07/26 07:44:36;;;;;;;0.43;0.43;;;;;;;31.24;35.45;99115.84;1850802;77;28520;-59
2022/07/26 07:47:25;;;;;;;0.95;0.60;;;;;;;31.20;35.37;99093.96;1859332;76;28053;-59
2022/07/26 07:50:13;;;;;;;0.70;0.70;;;;;;;31.28;35.30;99085.52;1850143;77;28057;-59
2022/07/26 07:53:02;;;;;;;1.00;0.68;;;;;;;31.24;35.28;99088.09;1836391;76;28108;-59
2022/07/26 07:55:50;;;;;;;0.80;0.80;;;;;;;31.30;35.24;99094.37;1850867;77;28109;-59
2022/07/26 07:58:39;;;;;;;0.60;0.60;;;;;;;31.32;35.19;99090.17;1875760;75;28063;-59
2022/07/26 08:01:27;;;;;;;0.65;0.65;;;;;;;31.33;35.10;99100.16;1856294;75;28104;-59
2022/07/26 08:04:16;;;;;;;0.70;0.70;;;;;;;31.35;35.07;99099.84;1863379;76;28058;-59
2022/07/26 08:07:04;;;;;;;0.60;0.60;;;;;;;31.36;35.05;99076.52;1868460;76;28081;-59
2022/07/26 08:09:52;;;;;;;0.60;0.60;;;;;;;31.34;35.04;99081.55;1860193;76;28002;-58
2022/07/26 08:12:41;;;;;;;0.60;0.60;;;;;;;31.39;34.93;99080.09;1859918;75;28054;-59
2022/07/26 08:15:29;;;;;;;0.60;0.60;;;;;;;31.38;34.95;99077.88;1858482;76;28168;-60
2022/07/26 08:18:18;;;;;;;0.50;0.50;;;;;;;31.40;34.94;99073.39;1860115;76;28030;-59
2022/07/26 08:21:06;;;;;;;0.70;0.70;;;;;;;31.41;34.91;99078.63;1847009;77;28053;-59
2022/07/26 08:23:55;;;;;;;0.75;0.75;;;;;;;31.42;34.86;99073.91;1836346;76;28288;-59
2022/07/26 08:26:44;;;;;;;0.72;0.72;;;;;;;31.45;34.82;99060.85;1853448;77;28137;-59
2022/07/26 08:29:32;;;;;;;0.57;0.57;;;;;;;31.47;34.78;99066.09;1849139;75;28135;-60
2022/07/26 08:32:21;;;;;;;0.60;0.60;;;;;;;31.47;34.73;99064.70;1868857;75;28112;-59
2022/07/26 08:35:10;;;;;;;0.68;0.68;;;;;;;31.49;34.71;99066.05;1843081;76;28096;-59
2022/07/26 08:37:59;;;;;;;0.68;0.57;;;;;;;31.52;34.65;99059.06;1868709;76;28134;-59
2022/07/26 08:40:47;;;;;;;0.87;0.87;;;;;;;31.53;34.60;99073.22;1830484;77;28165;-59
2022/07/26 08:43:36;;;;;;;0.72;0.70;;;;;;;31.51;34.61;99065.77;1855048;76;38516;-59
2022/07/26 08:46:25;;;;;;;0.62;0.62;;;;;;;31.52;34.57;99055.73;1865457;76;28122;-59
2022/07/26 08:49:14;;;;;;;0.70;0.70;;;;;;;31.53;34.52;99051.81;1855575;76;28215;-60
2022/07/26 08:52:02;;;;;;;0.60;0.60;;;;;;;31.53;34.55;99048.23;1856954;77;28048;-60
2022/07/26 08:54:52;;;;;;;0.60;0.60;;;;;;;31.56;34.56;99048.98;1832986;77;28101;-60
2022/07/26 08:57:41;;;;;;;0.40;0.40;;;;;;;31.57;34.48;99052.88;1882810;75;28349;-60
2022/07/26 09:00:31;;;;;;;0.70;0.70;;;;;;;31.60;34.40;99043.11;1858745;76;38402;-60
2022/07/26 09:03:26;;;;;;;0.70;0.70;;;;;;;31.61;34.36;99061.41;1855012;75;28113;-60
2022/07/26 09:06:17;;;;;;;0.50;0.50;;;;;;;31.64;34.33;99064.97;1797110;77;28074;-59
2022/07/26 09:09:12;;;;;;;1.00;1.00;;;;;;;31.62;34.37;99071.39;1786182;77;28309;-59
2022/07/26 09:12:16;;;;;;;0.80;0.72;;;;;;;31.63;34.29;99055.80;1760702;80;33572;-59
2022/07/26 09:15:06;;;;;;;0.80;0.80;;;;;;;31.62;34.36;99051.95;1753306;80;28518;-59
2022/07/26 09:17:57;;;;;;;0.65;0.65;;;;;;;31.59;34.37;99048.39;1777274;79;28376;-59
2022/07/26 09:20:47;;;;;;;0.50;0.50;;;;;;;31.60;34.35;99055.61;1808129;78;28090;-60
2022/07/26 09:23:42;;;;;;;0.90;0.60;;;;;;;31.61;34.35;99061.41;1803459;78;28275;-60
2022/07/26 09:26:30;;;;;;;0.75;0.75;;;;;;;31.64;34.31;99048.30;1809262;79;28314;-60
2022/07/26 09:29:19;;;;;;;0.75;0.75;;;;;;;31.64;34.27;99053.30;1848162;76;28456;-59
2022/07/26 09:32:15;;;;;;;0.60;0.60;;;;;;;31.66;34.24;99051.59;1848256;76;28178;-59
2022/07/26 09:35:12;;;;;;;0.45;0.45;;;;;;;31.68;34.21;99036.84;1868520;76;28231;-59
2022/07/26 09:38:01;;;;;;;0.60;0.60;;;;;;;31.68;34.21;99056.28;1856647;77;28060;-60
2022/07/26 09:40:49;;;;;;;0.62;0.62;;;;;;;31.66;34.22;99043.27;1848898;76;28327;-59
2022/07/26 09:43:38;;;;;;;0.53;0.53;;;;;;;31.67;34.19;99046.31;1849960;76;28161;-59
2022/07/26 09:46:30;;;;;;;0.60;0.60;;;;;;;31.68;34.19;99054.89;1868656;76;28117;-59
2022/07/26 09:49:21;;;;;;;0.68;0.68;;;;;;;31.71;34.11;99039.02;1868510;76;28135;-60
2022/07/26 09:52:21;;;;;;;0.60;0.60;;;;;;;31.70;34.11;99048.45;1868547;76;28064;-60
2022/07/26 09:55:12;;;;;;;0.65;0.50;;;;;;;31.71;34.08;99040.40;1868574;76;28048;-59
2022/07/26 09:58:02;;;;;;;0.60;0.60;;;;;;;31.69;34.09;99028.78;1847711;76;28122;-59
2022/07/26 10:00:51;;;;;;;2.00;0.60;;;;;;;31.71;34.07;99027.90;1868557;76;28115;-59
2022/07/26 10:03:39;;;;;;;0.70;0.70;;;;;;;31.73;33.98;99029.80;1868535;76;28226;-59
2022/07/26 10:06:27;;;;;;;0.60;0.60;;;;;;;31.74;34.01;99032.86;1868843;76;28171;-60
2022/07/26 10:09:17;;;;;;;0.42;0.42;;;;;;;31.77;33.97;99012.77;1868715;76;30148;-60
2022/07/26 10:12:11;;;;;;;0.60;0.60;;;;;;;31.77;33.92;99015.55;1868590;76;31067;-60
2022/07/26 10:14:59;;;;;;;0.57;0.57;;;;;;;31.80;33.86;99001.06;1868526;76;28185;-60
2022/07/26 10:17:47;;;;;;;0.60;0.60;;;;;;;31.80;33.86;98998.28;1853414;76;28158;-60
2022/07/26 10:20:42;;;;;;;0.60;0.60;;;;;;;31.79;33.88;99003.00;1857459;76;28302;-60
2022/07/26 10:23:46;;;;;;;0.60;0.60;;;;;;;31.80;33.85;98999.67;1857724;76;28224;-60
2022/07/26 10:26:37;;;;;;;0.57;0.57;;;;;;;31.79;33.86;98998.84;1859943;76;28111;-61
2022/07/26 10:29:27;;;;;;;0.50;0.50;;;;;;;31.78;33.88;98995.82;1868259;76;28169;-59
2022/07/26 10:32:18;;;;;;;0.60;0.60;;;;;;;31.84;33.83;98995.14;1850014;76;28040;-59
2022/07/26 10:35:31;;;;;;;0.60;0.60;;;;;;;31.83;33.84;98997.67;1846309;76;28060;-59
2022/07/26 10:38:25;;;;;;;0.55;0.55;;;;;;;31.84;33.82;98988.19;1868515;76;28208;-59
2022/07/26 10:41:14;;;;;;;0.50;0.50;;;;;;;31.82;33.84;98994.63;1868408;76;28192;-59
2022/07/26 10:44:17;;;;;;;0.60;0.60;;;;;;;31.83;33.82;98990.17;1868445;76;28121;-59
2022/07/26 10:47:11;;;;;;;0.60;0.60;;;;;;;31.85;33.76;98994.02;1852528;76;28163;-59
2022/07/26 10:50:00;;;;;;;0.62;0.62;;;;;;;31.83;33.80;98986.56;1847664;76;28118;-59
2022/07/26 10:52:59;;;;;;;0.60;0.60;;;;;;;31.84;33.79;98989.02;1856749;77;28100;-59
2022/07/26 10:55:50;;;;;;;0.82;0.70;;;;;;;31.86;33.78;98972.03;1859749;76;28126;-59
2022/07/26 10:58:43;;;;;;;0.60;0.60;;;;;;;31.86;33.73;98978.42;1868452;76;28127;-60
2022/07/26 11:01:36;;;;;;;0.60;0.60;;;;;;;31.87;33.71;98973.70;1831464;77;28171;-59
2022/07/26 11:04:25;;;;;;;0.53;0.53;;;;;;;31.90;33.66;98964.75;1858652;76;28187;-59
2022/07/26 11:07:13;;;;;;;0.70;0.70;;;;;;;31.91;33.66;98961.66;1847723;77;28104;-60
2022/07/26 11:10:03;;;;;;;0.50;0.50;;;;;;;31.92;33.60;98956.92;1849015;76;28246;-60
2022/07/26 11:13:10;;;;;;;0.60;0.60;;;;;;;31.93;33.61;98947.44;1850299;76;28085;-59
2022/07/26 11:16:04;;;;;;;0.93;0.50;;;;;;;31.94;33.57;98944.38;1841242;76;28048;-61
2022/07/26 11:18:53;;;;;;;0.53;0.53;;;;;;;31.90;33.64;98948.09;1856784;77;28171;-61
2022/07/26 11:21:44;;;;;;;0.60;0.50;;;;;;;31.88;33.64;98930.91;1856657;77;28064;-58
2022/07/26 11:24:32;;;;;;;0.70;0.70;;;;;;;31.90;33.63;98943.33;1856833;77;28123;-59
2022/07/26 11:27:21;;;;;;;0.60;0.60;;;;;;;31.91;33.66;98931.66;1837694;77;28060;-58
2022/07/26 11:30:11;;;;;;;0.50;0.50;;;;;;;31.93;33.59;98937.72;1867494;76;28100;-59
2022/07/26 11:32:59;;;;;;;0.53;0.50;;;;;;;31.96;33.56;98926.00;1867731;76;28134;-59
2022/07/26 11:35:51;;;;;;;0.50;0.50;;;;;;;31.97;33.54;98910.42;1841170;77;38433;-59
2022/07/26 11:38:52;;;;;;;0.60;0.60;;;;;;;31.98;33.50;98920.98;1840998;76;28221;-59
2022/07/26 11:41:43;;;;;;;0.70;0.70;;;;;;;31.97;33.52;98929.88;1868620;76;28153;-59
2022/07/26 11:44:32;;;;;;;0.60;0.60;;;;;;;31.95;33.55;98920.20;1868764;76;28167;-59
2022/07/26 11:47:23;;;;;;;0.60;0.60;;;;;;;31.97;33.54;98913.20;1868483;76;28057;-59
2022/07/26 11:50:12;;;;;;;0.60;0.60;;;;;;;31.99;33.48;98910.97;1850714;76;28189;-59
2022/07/26 11:53:00;;;;;;;0.50;0.50;;;;;;;32.00;33.46;98908.98;1856645;77;28139;-59
2022/07/26 11:55:50;;;;;;;0.60;0.60;;;;;;;32.00;33.43;98909.81;1827853;77;28188;-59
2022/07/26 11:58:41;;;;;;;0.70;0.70;;;;;;;32.01;33.44;98899.53;1868524;76;28081;-59
2022/07/26 12:01:30;;;;;;;0.62;0.62;;;;;;;32.01;33.42;98905.09;1825898;78;28311;-60
2022/07/26 12:04:29;;;;;;;1.65;0.50;;;;;;;32.02;33.41;98890.88;1865344;76;28056;-59
2022/07/26 12:07:20;;;;;;;0.40;0.40;;;;;;;32.04;33.35;98885.02;1856757;77;28088;-59
2022/07/26 12:10:12;;;;;;;0.65;0.65;;;;;;;32.04;33.34;98906.66;1856694;77;28111;-59
2022/07/26 12:13:14;;;;;;;0.50;0.50;;;;;;;32.03;33.37;98901.42;1851477;76;28076;-60
2022/07/26 12:16:02;;;;;;;0.57;0.57;;;;;;;32.02;33.38;98885.91;1829063;77;28103;-60
2022/07/26 12:18:54;;;;;;;0.80;0.50;;;;;;;32.00;33.41;98897.87;1856843;77;28167;-60
2022/07/26 12:21:45;;;;;;;0.55;0.55;;;;;;;32.01;33.38;98889.80;1868376;76;28197;-59
2022/07/26 12:24:42;;;;;;;0.50;0.50;;;;;;;32.02;33.33;98888.09;1856905;77;28068;-59
2022/07/26 12:27:33;;;;;;;0.60;0.60;;;;;;;32.03;33.26;98891.14;1838408;77;28065;-60
2022/07/26 12:30:22;;;;;;;0.50;0.50;;;;;;;32.01;33.22;98875.34;1856865;77;28057;-59
2022/07/26 12:33:10;;;;;;;0.60;0.60;;;;;;;32.01;33.19;98883.69;1856905;77;28139;-59
2022/07/26 12:36:01;;;;;;;0.50;0.50;;;;;;;32.00;33.15;98886.19;1856902;77;28061;-59
2022/07/26 12:38:53;;;;;;;1.10;0.42;;;;;;;32.02;33.13;98873.41;1844417;76;28097;-59
2022/07/26 12:41:41;;;;;;;0.50;0.50;;;;;;;32.03;33.06;98890.31;1868655;76;28144;-59
2022/07/26 12:44:29;;;;;;;0.70;0.70;;;;;;;32.02;32.99;98874.79;1868572;76;28175;-59
2022/07/26 12:47:18;;;;;;;0.60;0.60;;;;;;;32.04;32.97;98890.58;1868503;76;28177;-59
2022/07/26 12:50:08;;;;;;;0.53;0.53;;;;;;;32.05;32.90;98879.70;1837491;77;28285;-59
2022/07/26 12:53:02;;;;;;;0.50;0.50;;;;;;;32.04;32.80;98863.59;1866338;76;28649;-59
2022/07/26 12:55:51;;;;;;;0.80;0.80;;;;;;;32.07;32.80;98857.98;1868669;76;28173;-59
2022/07/26 12:58:39;;;;;;;0.60;0.60;;;;;;;32.08;32.75;98851.30;1868642;76;28055;-59
2022/07/26 13:01:29;;;;;;;0.70;0.70;;;;;;;32.07;32.71;98846.30;1850738;76;28202;-59
2022/07/26 13:04:18;;;;;;;0.72;0.72;;;;;;;32.06;32.69;98848.02;1868499;76;28107;-60
2022/07/26 13:07:07;;;;;;;0.60;0.60;;;;;;;32.05;32.68;98838.02;1868658;76;28224;-59
2022/07/26 13:09:56;;;;;;;0.90;0.65;;;;;;;32.10;32.65;98836.52;1868702;76;28122;-59
2022/07/26 13:12:44;;;;;;;1.10;0.70;;;;;;;32.11;32.62;98836.78;1842287;76;28103;-59
2022/07/26 13:15:32;;;;;;;0.50;0.50;;;;;;;32.10;32.63;98837.91;1868630;76;28115;-59
2022/07/26 13:18:21;;;;;;;0.68;0.68;;;;;;;32.12;32.63;98839.80;1867914;76;28197;-59
2022/07/26 13:21:10;;;;;;;0.60;0.60;;;;;;;32.12;32.64;98827.30;1852335;76;28189;-59
2022/07/26 13:23:59;;;;;;;0.60;0.57;;;;;;;32.14;32.62;98831.97;1847770;76;28099;-59
2022/07/26 13:26:47;;;;;;;0.90;0.50;;;;;;;32.13;32.65;98830.34;1868628;76;28064;-59